Time;durP1;ratioP1;P1;durP2;ratioP2;P2;SDS_P1;SDS_P2;PMS_P1;PMS_P2;Temp;Humidity;BMP_temperature;BMP_pressure;BME280_temperature;BME280_humidity;BME280_pressure;Samples;Min_cycle;Max_cycle;Signal;HPM_P1;HPM_P2
2021/09/20 00:02:10;;;;;;;10.73;7.07;;;11.90;94.70;;;;;;4992673;28;20042;-70
2021/09/20 00:04:35;;;;;;;8.60;5.72;;;11.90;94.80;;;;;;4983930;28;20334;-70
2021/09/20 00:07:01;;;;;;;8.25;5.63;;;11.90;94.40;;;;;;4990193;28;20026;-69
2021/09/20 00:09:27;;;;;;;14.05;7.28;;;11.90;94.40;;;;;;4989716;28;20093;-69
2021/09/20 00:11:52;;;;;;;8.75;5.93;;;12.00;94.20;;;;;;4994774;28;20072;-70
2021/09/20 00:14:18;;;;;;;11.00;6.90;;;12.00;94.70;;;;;;4993820;28;20527;-72
2021/09/20 00:16:44;;;;;;;11.00;7.68;;;11.90;94.80;;;;;;4996788;28;20023;-71
2021/09/20 00:19:09;;;;;;;9.70;6.32;;;11.90;94.80;;;;;;4994266;28;20084;-71
2021/09/20 00:21:38;;;;;;;8.18;5.78;;;12.00;94.00;;;;;;4994586;28;20040;-72
2021/09/20 00:24:04;;;;;;;9.77;5.85;;;12.00;94.10;;;;;;4963442;28;20096;-72
2021/09/20 00:26:30;;;;;;;8.57;5.60;;;12.00;94.80;;;;;;4978111;28;20030;-72
2021/09/20 00:28:55;;;;;;;8.40;5.82;;;12.00;94.70;;;;;;4984091;28;20018;-71
2021/09/20 00:31:23;;;;;;;8.77;6.20;;;12.00;95.30;;;;;;4993366;28;20038;-71
2021/09/20 00:33:49;;;;;;;9.85;6.63;;;12.00;95.20;;;;;;4963554;28;20039;-71
2021/09/20 00:36:15;;;;;;;10.77;6.95;;;12.00;95.50;;;;;;4980533;28;20037;-71
2021/09/20 00:38:40;;;;;;;9.20;5.63;;;12.00;95.90;;;;;;4993806;28;20034;-71
2021/09/20 00:41:06;;;;;;;11.40;6.72;;;11.90;95.70;;;;;;4989970;28;20058;-70
2021/09/20 00:43:32;;;;;;;11.55;7.22;;;12.00;95.30;;;;;;4994415;28;20041;-70
2021/09/20 00:45:58;;;;;;;9.15;6.30;;;12.00;95.50;;;;;;4973642;28;20026;-70
2021/09/20 00:48:24;;;;;;;13.98;7.72;;;12.00;95.30;;;;;;4981293;28;20062;-71
2021/09/20 00:50:49;;;;;;;10.18;6.50;;;12.00;95.30;;;;;;4995923;28;20030;-70
2021/09/20 00:53:15;;;;;;;9.02;6.63;;;12.00;95.50;;;;;;4984843;28;20041;-71
2021/09/20 00:55:44;;;;;;;13.65;7.35;;;12.00;95.30;;;;;;5002408;28;20034;-70
2021/09/20 00:58:11;;;;;;;12.38;7.65;;;11.90;95.00;;;;;;4994571;28;20218;-70
2021/09/20 01:00:37;;;;;;;13.60;7.55;;;12.00;94.90;;;;;;4996943;28;20034;-71
2021/09/20 01:03:02;;;;;;;12.82;7.38;;;12.00;95.00;;;;;;4992709;28;20031;-70
2021/09/20 01:05:28;;;;;;;9.43;6.70;;;12.00;95.20;;;;;;4989666;28;20117;-70
2021/09/20 01:07:54;;;;;;;11.88;7.88;;;12.00;95.30;;;;;;4987306;28;20099;-70
2021/09/20 01:10:19;;;;;;;10.88;7.28;;;12.00;95.60;;;;;;4999411;28;20045;-71
2021/09/20 01:12:45;;;;;;;10.38;7.10;;;12.00;95.60;;;;;;4997795;28;20101;-70
2021/09/20 01:15:12;;;;;;;11.98;6.60;;;11.90;95.40;;;;;;4996825;28;20062;-70
2021/09/20 01:17:37;;;;;;;11.25;5.00;;;11.90;94.80;;;;;;4983740;28;20093;-71
2021/09/20 01:20:05;;;;;;;9.65;6.35;;;11.90;94.70;;;;;;4968995;28;20440;-71
2021/09/20 01:22:32;;;;;;;11.20;6.28;;;12.00;95.20;;;;;;4989032;28;20504;-70
2021/09/20 01:24:58;;;;;;;9.98;6.15;;;11.90;95.20;;;;;;4999117;28;20062;-71
2021/09/20 01:27:24;;;;;;;8.40;5.63;;;12.00;95.00;;;;;;4991011;28;20428;-71
2021/09/20 01:29:50;;;;;;;9.05;5.78;;;11.90;95.10;;;;;;4976024;28;20026;-71
2021/09/20 01:32:16;;;;;;;8.30;5.32;;;11.90;95.20;;;;;;4995964;28;20351;-70
2021/09/20 01:34:45;;;;;;;8.00;5.82;;;11.90;94.80;;;;;;4982809;28;20037;-70
2021/09/20 01:37:10;;;;;;;9.98;6.00;;;11.90;95.00;;;;;;4987972;28;20054;-70
2021/09/20 01:39:37;;;;;;;18.05;6.15;;;11.90;94.70;;;;;;4985736;28;20467;-70
2021/09/20 01:42:04;;;;;;;13.85;7.00;;;11.90;94.60;;;;;;4993140;28;20363;-70
2021/09/20 01:44:30;;;;;;;11.23;5.85;;;11.80;94.30;;;;;;4985034;28;20027;-70
2021/09/20 01:46:57;;;;;;;9.63;6.07;;;11.90;93.70;;;;;;4984849;28;20336;-71
2021/09/20 01:49:24;;;;;;;9.77;6.13;;;11.80;94.10;;;;;;4988982;28;20035;-70
2021/09/20 01:51:51;;;;;;;10.07;6.60;;;11.80;93.90;;;;;;4980710;28;20023;-71
2021/09/20 01:54:17;;;;;;;9.50;6.25;;;11.90;93.30;;;;;;4982505;28;20042;-70
2021/09/20 01:56:43;;;;;;;10.65;7.05;;;11.90;93.70;;;;;;4981824;28;20055;-70
2021/09/20 01:59:09;;;;;;;12.27;7.05;;;11.90;94.10;;;;;;4996989;28;20053;-71
2021/09/20 02:01:35;;;;;;;12.35;6.68;;;11.80;94.00;;;;;;4987744;28;20031;-70
2021/09/20 02:04:01;;;;;;;9.80;7.20;;;11.90;93.70;;;;;;4982695;28;20034;-71
2021/09/20 02:06:27;;;;;;;11.73;7.88;;;11.80;93.60;;;;;;4994577;28;20153;-70
2021/09/20 02:08:54;;;;;;;11.30;7.50;;;11.80;93.90;;;;;;4994587;28;20034;-70
2021/09/20 02:11:21;;;;;;;10.32;6.88;;;11.80;93.20;;;;;;4982731;28;20327;-70
2021/09/20 02:13:48;;;;;;;13.32;8.48;;;11.80;93.30;;;;;;4995023;28;20030;-70
2021/09/20 02:16:14;;;;;;;14.50;10.02;;;11.80;93.30;;;;;;4988615;28;20043;-71
2021/09/20 02:18:41;;;;;;;11.95;8.52;;;11.80;93.00;;;;;;4979038;28;20429;-70
2021/09/20 02:21:07;;;;;;;19.88;10.27;;;11.80;92.80;;;;;;4978578;28;20042;-70
2021/09/20 02:23:33;;;;;;;22.25;11.80;;;11.80;92.60;;;;;;4981541;28;20050;-70
2021/09/20 02:26:00;;;;;;;23.20;13.60;;;11.80;92.60;;;;;;4966697;28;20045;-70
2021/09/20 02:28:26;;;;;;;18.55;11.63;;;11.70;92.90;;;;;;4996270;28;20436;-70
2021/09/20 02:30:54;;;;;;;19.60;12.32;;;11.80;92.40;;;;;;4991496;28;20047;-70
2021/09/20 02:33:20;;;;;;;22.15;13.13;;;11.80;92.60;;;;;;4978588;28;20126;-70
2021/09/20 02:35:46;;;;;;;17.58;11.25;;;11.80;92.80;;;;;;4986152;28;20472;-70
2021/09/20 02:38:15;;;;;;;16.95;10.20;;;11.80;92.70;;;;;;4987996;28;20110;-71
2021/09/20 02:40:41;;;;;;;17.42;10.40;;;11.70;92.70;;;;;;4995637;28;20026;-70
2021/09/20 02:43:07;;;;;;;13.50;9.77;;;11.80;92.30;;;;;;4978048;28;20038;-70
2021/09/20 02:45:33;;;;;;;14.40;9.85;;;11.80;92.30;;;;;;4979947;28;20360;-70
2021/09/20 02:47:58;;;;;;;16.73;10.75;;;11.80;92.60;;;;;;4988191;28;20105;-71
2021/09/20 02:50:24;;;;;;;17.33;10.63;;;11.80;92.70;;;;;;4985534;28;20460;-70
2021/09/20 02:52:50;;;;;;;16.15;10.98;;;11.80;93.00;;;;;;4978174;28;20037;-70
2021/09/20 02:55:16;;;;;;;15.05;9.60;;;11.80;92.60;;;;;;4988908;28;20033;-70
2021/09/20 02:57:42;;;;;;;18.52;11.20;;;11.90;92.70;;;;;;4984527;28;20034;-70
2021/09/20 03:00:09;;;;;;;17.25;10.00;;;11.90;93.10;;;;;;4993925;28;20328;-68
2021/09/20 03:02:36;;;;;;;16.95;10.07;;;11.80;92.90;;;;;;4977811;28;20034;-69
2021/09/20 03:05:01;;;;;;;17.75;10.38;;;11.90;92.90;;;;;;4977809;28;20316;-69
2021/09/20 03:07:30;;;;;;;17.25;9.73;;;11.80;92.90;;;;;;4984141;28;20018;-69
2021/09/20 03:09:56;;;;;;;18.35;10.27;;;11.80;93.00;;;;;;4996943;28;20116;-70
2021/09/20 03:12:21;;;;;;;17.77;10.00;;;11.80;93.00;;;;;;4991438;28;20429;-71
2021/09/20 03:14:47;;;;;;;16.55;9.13;;;11.80;92.70;;;;;;4996726;28;20037;-71
2021/09/20 03:17:13;;;;;;;16.13;9.00;;;11.80;92.80;;;;;;4991444;28;20034;-70
2021/09/20 03:19:39;;;;;;;18.20;9.70;;;11.80;92.70;;;;;;4972143;28;20033;-71
2021/09/20 03:22:08;;;;;;;16.58;7.95;;;11.80;92.50;;;;;;4987106;28;20373;-71
2021/09/20 03:24:34;;;;;;;14.05;7.40;;;11.80;92.60;;;;;;4987724;28;20030;-70
2021/09/20 03:26:59;;;;;;;15.40;8.68;;;11.80;91.90;;;;;;4982996;28;20018;-70
2021/09/20 03:29:25;;;;;;;17.42;9.52;;;11.80;92.30;;;;;;4987134;28;20097;-70
2021/09/20 03:31:53;;;;;;;17.27;10.15;;;11.80;92.20;;;;;;5001105;28;20097;-72
2021/09/20 03:34:18;;;;;;;15.23;8.52;;;11.80;92.40;;;;;;4995738;28;20026;-70
2021/09/20 03:36:44;;;;;;;17.65;10.55;;;11.80;92.00;;;;;;4992560;28;20033;-71
2021/09/20 03:39:11;;;;;;;21.50;11.52;;;11.80;92.00;;;;;;4987514;28;20049;-70
2021/09/20 03:41:42;;;;;;;14.52;8.82;;;11.80;92.00;;;;;;4976439;28;20038;-70
2021/09/20 03:44:10;;;;;;;21.30;11.07;;;11.80;91.80;;;;;;4979815;28;20436;-70
2021/09/20 03:46:36;;;;;;;26.35;12.45;;;11.80;91.70;;;;;;4984452;28;20108;-72
2021/09/20 03:49:03;;;;;;;22.27;12.02;;;11.80;91.50;;;;;;4977164;28;20027;-71
2021/09/20 03:51:29;;;;;;;17.63;9.07;;;11.80;91.90;;;;;;4985232;28;20023;-70
2021/09/20 03:53:55;;;;;;;20.38;10.88;;;11.80;91.80;;;;;;4975958;28;20429;-70
2021/09/20 03:56:21;;;;;;;18.40;10.57;;;11.80;92.20;;;;;;4985435;28;20133;-71
2021/09/20 03:58:46;;;;;;;17.17;10.40;;;11.80;91.90;;;;;;4990126;28;20038;-70
2021/09/20 04:01:12;;;;;;;16.80;10.05;;;11.80;91.90;;;;;;4985501;28;20033;-70
2021/09/20 04:03:38;;;;;;;24.33;13.20;;;11.80;92.10;;;;;;4995904;28;20109;-70
2021/09/20 04:06:03;;;;;;;22.77;12.77;;;11.80;92.40;;;;;;4989760;28;20540;-70
2021/09/20 04:08:29;;;;;;;17.50;10.18;;;11.80;92.40;;;;;;4990714;28;20038;-70
2021/09/20 04:10:59;;;;;;;17.48;9.95;;;11.80;92.20;;;;;;4983327;28;20023;-72
2021/09/20 04:13:25;;;;;;;16.20;9.18;;;11.80;92.70;;;;;;4985527;28;20105;-71
2021/09/20 04:15:55;;;;;;;16.50;9.88;;;11.80;92.30;;;;;;4986975;28;20022;-70
2021/09/20 04:18:22;;;;;;;15.98;9.98;;;11.80;92.40;;;;;;4995933;28;20108;-70
2021/09/20 04:20:51;;;;;;;21.10;10.85;;;11.90;92.70;;;;;;4994831;28;20023;-71
2021/09/20 04:23:19;;;;;;;18.42;10.55;;;11.80;92.80;;;;;;4999995;28;20053;-70
2021/09/20 04:25:46;;;;;;;21.35;11.77;;;11.80;92.80;;;;;;4993462;28;20030;-70
2021/09/20 04:28:12;;;;;;;21.65;12.25;;;11.70;92.80;;;;;;4985263;28;20089;-70
2021/09/20 04:30:37;;;;;;;20.73;11.73;;;11.70;92.90;;;;;;4994630;28;20054;-71
2021/09/20 04:33:03;;;;;;;18.60;11.00;;;11.70;92.70;;;;;;4985034;28;20483;-70
2021/09/20 04:35:29;;;;;;;20.83;11.48;;;11.70;92.40;;;;;;5001619;28;20113;-70
2021/09/20 04:37:55;;;;;;;17.38;10.88;;;11.80;92.60;;;;;;5009841;28;20057;-70
2021/09/20 04:40:20;;;;;;;17.08;10.43;;;11.80;92.30;;;;;;4972363;28;20324;-70
2021/09/20 04:42:46;;;;;;;19.10;12.48;;;11.80;92.40;;;;;;4988244;28;20484;-70
2021/09/20 04:45:12;;;;;;;22.17;12.60;;;11.80;92.80;;;;;;4995021;28;20301;-70
2021/09/20 04:47:38;;;;;;;24.05;14.20;;;11.80;92.50;;;;;;4986664;28;20053;-71
2021/09/20 04:50:04;;;;;;;23.77;15.05;;;11.80;92.80;;;;;;5000896;28;20018;-70
2021/09/20 04:52:30;;;;;;;28.73;16.02;;;11.80;92.80;;;;;;4999490;28;20026;-71
2021/09/20 04:54:58;;;;;;;28.63;16.70;;;11.80;93.30;;;;;;4999465;28;20083;-70
2021/09/20 04:57:24;;;;;;;23.80;14.90;;;11.80;93.30;;;;;;4995302;28;20031;-70
2021/09/20 04:59:50;;;;;;;23.88;14.75;;;11.80;93.20;;;;;;4965691;28;20169;-70
2021/09/20 05:02:15;;;;;;;28.27;16.67;;;11.80;93.20;;;;;;4986308;28;20491;-70
2021/09/20 05:04:41;;;;;;;26.80;14.32;;;11.80;93.30;;;;;;5002488;28;20026;-70
2021/09/20 05:07:07;;;;;;;23.00;15.40;;;11.80;93.30;;;;;;5001675;28;20036;-70
2021/09/20 05:09:32;;;;;;;27.73;16.63;;;11.80;93.70;;;;;;4992527;28;20419;-71
2021/09/20 05:12:00;;;;;;;33.88;18.58;;;11.80;94.00;;;;;;5001228;28;20018;-71
2021/09/20 05:14:26;;;;;;;26.35;16.98;;;11.80;94.00;;;;;;5002273;28;20106;-70
2021/09/20 05:16:52;;;;;;;24.92;15.38;;;11.80;93.90;;;;;;4990171;28;20460;-70
2021/09/20 05:19:18;;;;;;;31.23;18.13;;;11.80;93.70;;;;;;4996020;28;20022;-71
2021/09/20 05:21:44;;;;;;;23.20;15.30;;;11.80;94.10;;;;;;4998262;28;20045;-70
2021/09/20 05:24:09;;;;;;;24.48;15.13;;;11.90;93.40;;;;;;4984614;28;20420;-71
2021/09/20 05:26:35;;;;;;;23.50;14.23;;;11.90;94.10;;;;;;4989526;28;20332;-70
2021/09/20 05:29:01;;;;;;;25.00;16.33;;;11.90;93.90;;;;;;4999347;28;20030;-70
2021/09/20 05:31:30;;;;;;;24.58;16.00;;;11.90;94.70;;;;;;4994021;28;20074;-71
2021/09/20 05:33:56;;;;;;;29.65;17.75;;;11.90;94.70;;;;;;4985914;28;20030;-71
2021/09/20 05:36:24;;;;;;;29.33;17.52;;;11.90;95.00;;;;;;4988125;28;20337;-70
2021/09/20 05:38:49;;;;;;;27.88;17.63;;;11.90;94.80;;;;;;4991052;28;20038;-70
2021/09/20 05:41:15;;;;;;;33.25;18.48;;;11.90;94.70;;;;;;4997586;28;20496;-70
2021/09/20 05:43:41;;;;;;;25.08;16.25;;;11.90;94.60;;;;;;4993330;28;20046;-70
2021/09/20 05:46:06;;;;;;;33.17;18.73;;;11.90;94.80;;;;;;4995362;28;20118;-70
2021/09/20 05:48:32;;;;;;;26.58;16.00;;;11.90;94.80;;;;;;4975951;28;20023;-70
2021/09/20 05:50:58;;;;;;;28.42;16.63;;;11.90;94.80;;;;;;4998588;28;20026;-70
2021/09/20 05:53:23;;;;;;;22.65;14.93;;;12.00;94.70;;;;;;4987486;28;20062;-70
2021/09/20 05:55:49;;;;;;;21.00;14.13;;;12.00;94.80;;;;;;4993400;28;20030;-70
2021/09/20 05:58:15;;;;;;;22.48;15.20;;;12.10;95.20;;;;;;4982614;28;20107;-69
2021/09/20 06:00:41;;;;;;;23.65;15.52;;;12.10;95.50;;;;;;4985920;28;20034;-69
2021/09/20 06:03:06;;;;;;;24.77;15.95;;;12.20;95.80;;;;;;4998376;28;20022;-70
2021/09/20 06:05:38;;;;;;;22.85;14.60;;;12.20;95.90;;;;;;4998287;28;20026;-72
2021/09/20 06:08:05;;;;;;;23.25;14.98;;;12.20;95.90;;;;;;4998339;28;20029;-71
2021/09/20 06:10:31;;;;;;;20.33;13.85;;;12.30;96.40;;;;;;4998432;28;20026;-72
2021/09/20 06:12:57;;;;;;;23.60;15.45;;;12.30;96.90;;;;;;4997029;28;20411;-71
2021/09/20 06:15:22;;;;;;;23.63;15.23;;;12.40;97.00;;;;;;4998258;28;20054;-71
2021/09/20 06:17:50;;;;;;;23.05;15.70;;;12.40;97.40;;;;;;4998373;28;20109;-71
2021/09/20 06:20:17;;;;;;;21.05;14.43;;;12.40;97.30;;;;;;4987299;28;20102;-71
2021/09/20 06:22:42;;;;;;;23.08;15.00;;;12.50;97.60;;;;;;4978768;28;20038;-71
2021/09/20 06:25:09;;;;;;;23.38;15.57;;;12.60;97.90;;;;;;4998011;28;20332;-70
2021/09/20 06:27:36;;;;;;;19.05;12.88;;;12.60;98.00;;;;;;4996086;28;20030;-71
2021/09/20 06:30:04;;;;;;;18.27;11.98;;;12.60;98.00;;;;;;4997532;28;20149;-70
2021/09/20 06:32:30;;;;;;;17.17;12.45;;;12.70;98.00;;;;;;4995410;28;20026;-70
2021/09/20 06:34:55;;;;;;;21.60;12.57;;;12.80;98.00;;;;;;4978438;28;20039;-70
2021/09/20 06:37:22;;;;;;;18.00;11.57;;;13.00;98.00;;;;;;4978426;28;20069;-70
2021/09/20 06:39:47;;;;;;;15.60;10.50;;;13.10;98.00;;;;;;4978350;28;20050;-70
2021/09/20 06:42:13;;;;;;;16.88;12.10;;;13.20;98.00;;;;;;4977029;28;20043;-71
2021/09/20 06:44:39;;;;;;;16.25;10.52;;;13.40;98.00;;;;;;4978247;28;20026;-71
2021/09/20 06:47:05;;;;;;;17.83;10.82;;;13.50;98.00;;;;;;4978391;28;20030;-70
2021/09/20 06:49:31;;;;;;;14.68;10.55;;;13.50;98.00;;;;;;4978163;28;20031;-71
2021/09/20 06:51:57;;;;;;;15.77;10.93;;;13.70;98.00;;;;;;4977969;28;20046;-71
2021/09/20 06:54:22;;;;;;;15.98;10.75;;;13.80;98.00;;;;;;4990511;28;20447;-71
2021/09/20 06:56:56;;;;;;;16.42;10.75;;;14.00;98.00;;;;;;4996139;28;20455;-71
2021/09/20 06:59:22;;;;;;;16.42;10.90;;;14.10;98.00;;;;;;4997530;28;20042;-71
2021/09/20 07:01:48;;;;;;;15.88;9.95;;;14.20;98.00;;;;;;4997392;28;20030;-71
2021/09/20 07:04:13;;;;;;;16.45;10.40;;;14.30;98.00;;;;;;4996261;28;20036;-71
2021/09/20 07:06:39;;;;;;;17.55;10.18;;;14.40;98.00;;;;;;4996852;28;20415;-71
2021/09/20 07:09:04;;;;;;;17.55;10.82;;;14.40;98.00;;;;;;4995207;28;20018;-71
2021/09/20 07:11:30;;;;;;;15.48;10.30;;;14.50;98.00;;;;;;4992791;28;20018;-70
2021/09/20 07:13:56;;;;;;;17.00;10.40;;;14.60;98.00;;;;;;4986011;28;20373;-70
2021/09/20 07:16:21;;;;;;;22.13;12.20;;;14.80;98.00;;;;;;4977705;28;20066;-71
2021/09/20 07:18:47;;;;;;;15.80;10.57;;;14.90;98.00;;;;;;4977727;28;20061;-70
2021/09/20 07:21:13;;;;;;;16.55;11.10;;;14.70;98.00;;;;;;4995629;28;20027;-71
2021/09/20 07:23:38;;;;;;;18.55;12.05;;;14.60;98.00;;;;;;4996728;28;20085;-71
2021/09/20 07:26:05;;;;;;;18.67;11.70;;;14.20;98.00;;;;;;4996994;28;20019;-71
2021/09/20 07:28:30;;;;;;;20.58;12.80;;;13.90;98.00;;;;;;4995800;28;20099;-71
2021/09/20 07:30:56;;;;;;;18.42;12.70;;;13.80;98.00;;;;;;4996788;28;20451;-71
2021/09/20 07:33:22;;;;;;;24.70;13.80;;;13.60;98.00;;;;;;4996399;28;20056;-70
2021/09/20 07:35:47;;;;;;;19.92;12.52;;;13.50;98.00;;;;;;4997011;28;20097;-70
2021/09/20 07:38:13;;;;;;;26.42;12.77;;;13.50;98.00;;;;;;4995027;28;20038;-70
2021/09/20 07:40:39;;;;;;;18.42;12.52;;;13.50;98.00;;;;;;4996436;28;20064;-71
2021/09/20 07:43:04;;;;;;;19.55;12.40;;;13.50;98.00;;;;;;4978316;28;20133;-69
2021/09/20 07:45:31;;;;;;;19.38;12.77;;;13.70;98.00;;;;;;4996713;28;20451;-70
2021/09/20 07:47:57;;;;;;;18.33;12.45;;;13.80;98.00;;;;;;4995260;28;20089;-70
2021/09/20 07:50:25;;;;;;;20.17;12.98;;;13.90;98.00;;;;;;4996599;28;20367;-70
2021/09/20 07:52:51;;;;;;;23.70;12.98;;;13.90;98.00;;;;;;4993088;28;20439;-70
2021/09/20 07:55:17;;;;;;;18.02;12.18;;;14.00;98.00;;;;;;4977193;28;20031;-70
2021/09/20 07:57:44;;;;;;;18.45;12.80;;;14.00;98.00;;;;;;4992658;28;20033;-70
2021/09/20 08:00:11;;;;;;;17.20;11.07;;;14.20;98.00;;;;;;5016402;28;20311;-70
2021/09/20 08:02:37;;;;;;;18.40;11.65;;;14.40;98.00;;;;;;5004464;28;20058;-70
2021/09/20 08:05:03;;;;;;;17.67;11.20;;;14.50;98.00;;;;;;4980713;28;20034;-71
2021/09/20 08:07:29;;;;;;;15.45;10.95;;;14.60;98.00;;;;;;4985556;28;20026;-70
2021/09/20 08:09:58;;;;;;;14.07;9.40;;;14.90;98.00;;;;;;4976829;28;20038;-71
2021/09/20 08:12:23;;;;;;;13.25;9.63;;;15.50;98.00;;;;;;4982331;28;20031;-70
2021/09/20 08:14:49;;;;;;;17.52;9.15;;;16.40;97.60;;;;;;4994399;28;20030;-70
2021/09/20 08:17:15;;;;;;;12.00;8.13;;;16.80;95.90;;;;;;4995239;28;20089;-70
2021/09/20 08:19:41;;;;;;;11.45;7.93;;;16.90;95.20;;;;;;4986171;28;20447;-71
2021/09/20 08:22:06;;;;;;;12.43;8.38;;;17.20;94.40;;;;;;4995835;28;20035;-70
2021/09/20 08:24:32;;;;;;;12.75;9.15;;;17.40;93.50;;;;;;4996409;28;20029;-70
2021/09/20 08:27:01;;;;;;;14.13;9.38;;;17.20;93.10;;;;;;4994336;28;20026;-71
2021/09/20 08:29:27;;;;;;;12.98;8.68;;;17.00;94.60;;;;;;4996219;28;20094;-70
2021/09/20 08:31:53;;;;;;;11.75;7.85;;;16.60;94.50;;;;;;4996169;28;20138;-70
2021/09/20 08:34:19;;;;;;;12.07;8.02;;;16.70;95.50;;;;;;4996294;28;20022;-70
2021/09/20 08:36:44;;;;;;;12.90;9.18;;;17.10;94.30;;;;;;4996275;28;20031;-70
2021/09/20 08:39:10;;;;;;;12.73;8.45;;;17.20;93.50;;;;;;4996167;28;20050;-71
2021/09/20 08:41:43;;;;;;;10.52;7.28;;;17.20;94.50;;;;;;4995090;28;20030;-70
2021/09/20 08:44:10;;;;;;;9.80;7.00;;;18.20;93.00;;;;;;4996153;28;20019;-71
2021/09/20 08:46:40;;;;;;;10.52;7.47;;;18.70;89.10;;;;;;4992396;28;20026;-70
2021/09/20 08:49:07;;;;;;;11.25;8.10;;;18.60;88.90;;;;;;4996168;28;20371;-70
2021/09/20 08:51:33;;;;;;;13.82;8.15;;;17.80;91.80;;;;;;4994687;28;20022;-69
2021/09/20 08:53:59;;;;;;;13.85;8.50;;;17.40;91.90;;;;;;4996487;28;20085;-70
2021/09/20 08:56:25;;;;;;;11.77;8.23;;;17.10;92.40;;;;;;4999641;28;20061;-69
2021/09/20 08:58:50;;;;;;;11.10;7.55;;;17.20;91.90;;;;;;4998523;28;20065;-71
2021/09/20 09:01:16;;;;;;;10.55;7.50;;;17.60;92.20;;;;;;4999774;28;20034;-72
2021/09/20 09:03:42;;;;;;;11.57;7.20;;;17.90;91.60;;;;;;4999581;28;20427;-71
2021/09/20 09:06:08;;;;;;;11.40;7.97;;;18.10;89.40;;;;;;4999413;28;20100;-71
2021/09/20 09:08:39;;;;;;;10.43;7.35;;;18.10;90.20;;;;;;4999649;28;20023;-70
2021/09/20 09:11:11;;;;;;;11.88;7.90;;;18.10;91.20;;;;;;4982132;28;20022;-71
2021/09/20 09:13:42;;;;;;;9.65;6.68;;;18.10;89.90;;;;;;4998373;28;20085;-71
2021/09/20 09:16:37;;;;;;;10.27;7.47;;;17.70;91.00;;;;;;4999399;28;20026;-71
2021/09/20 09:19:08;;;;;;;9.80;7.10;;;17.90;91.50;;;;;;4986695;28;20038;-70
2021/09/20 09:21:39;;;;;;;9.50;6.88;;;17.60;90.40;;;;;;4999120;28;20031;-70
2021/09/20 09:24:16;;;;;;;11.70;7.32;;;17.30;91.40;;;;;;4989500;28;20030;-70
2021/09/20 09:27:02;;;;;;;11.45;7.38;;;17.00;92.70;;;;;;4978526;28;20305;-70
2021/09/20 09:29:33;;;;;;;9.88;6.75;;;17.00;91.90;;;;;;4979702;28;20085;-70
2021/09/20 09:32:02;;;;;;;10.32;6.75;;;17.00;93.30;;;;;;4979470;28;20043;-70
2021/09/20 09:34:31;;;;;;;10.30;6.95;;;17.30;92.20;;;;;;4962644;28;20031;-70
2021/09/20 09:37:11;;;;;;;9.38;6.72;;;17.40;92.00;;;;;;4979445;28;20030;-70
2021/09/20 09:39:37;;;;;;;9.88;6.55;;;17.60;92.50;;;;;;4962289;28;20034;-70
2021/09/20 09:42:04;;;;;;;10.23;6.50;;;17.80;91.20;;;;;;4978401;28;20420;-71
2021/09/20 09:44:34;;;;;;;9.43;6.90;;;18.10;90.20;;;;;;4979320;28;20045;-70
2021/09/20 09:47:00;;;;;;;8.90;6.45;;;17.90;89.70;;;;;;4979449;28;20082;-71
2021/09/20 09:49:28;;;;;;;11.18;6.82;;;17.70;90.60;;;;;;4982768;28;20030;-70
2021/09/20 09:51:53;;;;;;;10.15;7.25;;;17.60;90.90;;;;;;4998338;28;20072;-70
2021/09/20 09:54:26;;;;;;;9.77;7.20;;;17.60;91.30;;;;;;4998782;28;20027;-71
2021/09/20 09:57:13;;;;;;;9.23;5.68;;;17.50;90.60;;;;;;4997650;28;20845;-69
2021/09/20 09:59:41;;;;;;;8.98;6.70;;;17.80;92.40;;;;;;4998601;28;20030;-69
2021/09/20 10:02:18;;;;;;;9.55;6.43;;;18.30;89.10;;;;;;4996587;28;20054;-69
2021/09/20 10:04:56;;;;;;;9.68;6.22;;;18.50;90.20;;;;;;4998575;28;20048;-70
2021/09/20 10:07:24;;;;;;;8.50;5.88;;;18.70;88.10;;;;;;4998493;28;20019;-70
2021/09/20 10:09:49;;;;;;;10.38;6.63;;;19.00;88.10;;;;;;4998450;28;20018;-70
2021/09/20 10:12:15;;;;;;;9.93;6.60;;;18.60;87.60;;;;;;4997263;28;20026;-70
2021/09/20 10:14:42;;;;;;;9.73;6.75;;;18.20;88.60;;;;;;4998356;28;20026;-69
2021/09/20 10:17:11;;;;;;;9.63;6.43;;;17.90;89.60;;;;;;4998388;28;20018;-69
2021/09/20 10:19:37;;;;;;;13.18;8.65;;;17.70;89.60;;;;;;4998332;28;20029;-69
2021/09/20 10:22:03;;;;;;;9.95;6.85;;;17.70;90.80;;;;;;4998314;28;20113;-69
2021/09/20 10:24:29;;;;;;;10.25;7.25;;;17.90;89.30;;;;;;4998022;28;20149;-69
2021/09/20 10:26:57;;;;;;;9.40;6.28;;;17.90;89.50;;;;;;4996895;28;20030;-69
2021/09/20 10:29:23;;;;;;;7.97;5.65;;;18.00;90.10;;;;;;4998159;28;20097;-70
2021/09/20 10:31:49;;;;;;;10.48;7.38;;;18.30;89.70;;;;;;4992403;28;20043;-69
2021/09/20 10:34:18;;;;;;;9.77;6.32;;;18.50;87.70;;;;;;4978585;28;20076;-70
2021/09/20 10:36:58;;;;;;;10.27;5.88;;;18.70;87.40;;;;;;4978617;28;20401;-69
2021/09/20 10:39:46;;;;;;;8.82;5.95;;;18.80;86.30;;;;;;4978428;28;20298;-69
2021/09/20 10:42:44;;;;;;;8.90;6.07;;;18.90;88.20;;;;;;4977083;28;20031;-69
2021/09/20 10:45:52;;;;;;;8.68;5.47;;;18.80;86.40;;;;;;4978242;28;20443;-70
2021/09/20 10:48:22;;;;;;;7.53;5.03;;;18.70;85.70;;;;;;4978064;28;20109;-70
2021/09/20 10:50:49;;;;;;;9.02;5.88;;;18.80;84.00;;;;;;4978457;28;20029;-69
2021/09/20 10:53:35;;;;;;;7.72;5.30;;;18.50;84.50;;;;;;4978307;28;20143;-69
2021/09/20 10:56:03;;;;;;;6.65;4.40;;;18.60;84.00;;;;;;4978765;28;20281;-69
2021/09/20 10:58:33;;;;;;;6.75;4.75;;;18.90;84.50;;;;;;4976959;28;20034;-70
2021/09/20 11:01:26;;;;;;;6.90;4.35;;;19.40;83.20;;;;;;4994571;28;20030;-69
2021/09/20 11:03:55;;;;;;;7.32;4.65;;;19.60;81.10;;;;;;4997378;28;20034;-71
2021/09/20 11:06:33;;;;;;;7.13;4.25;;;19.70;80.20;;;;;;4997398;28;20030;-69
2021/09/20 11:08:58;;;;;;;6.43;3.90;;;19.40;82.90;;;;;;4997460;28;20023;-69
2021/09/20 11:11:44;;;;;;;6.85;4.10;;;19.70;77.60;;;;;;4995338;28;20029;-69
2021/09/20 11:14:35;;;;;;;6.03;4.38;;;19.90;80.90;;;;;;4996266;28;20088;-70
2021/09/20 11:17:22;;;;;;;7.25;5.32;;;20.40;80.10;;;;;;4997103;28;20018;-70
2021/09/20 11:19:49;;;;;;;9.50;6.63;;;20.60;81.50;;;;;;4996604;28;20042;-70
2021/09/20 11:22:14;;;;;;;8.48;5.25;;;21.00;80.60;;;;;;4996992;28;20482;-70
2021/09/20 11:24:56;;;;;;;9.85;5.88;;;21.20;79.30;;;;;;4996944;28;20031;-70
2021/09/20 11:27:23;;;;;;;9.82;6.40;;;20.40;82.90;;;;;;4995807;28;20113;-69
2021/09/20 11:30:00;;;;;;;11.70;7.60;;;20.10;82.60;;;;;;4996797;28;20027;-69
2021/09/20 11:32:27;;;;;;;11.73;7.93;;;19.50;83.80;;;;;;4996885;28;20343;-69
2021/09/20 11:34:56;;;;;;;12.45;8.80;;;19.00;86.90;;;;;;4997035;28;20026;-69
2021/09/20 11:37:23;;;;;;;11.93;8.80;;;18.60;87.60;;;;;;4996941;28;20096;-69
2021/09/20 11:39:53;;;;;;;13.00;8.60;;;18.00;88.60;;;;;;4988049;28;20027;-69
2021/09/20 11:42:23;;;;;;;12.48;8.35;;;17.60;89.70;;;;;;4980459;28;20094;-68
2021/09/20 11:44:57;;;;;;;12.40;9.05;;;17.50;90.40;;;;;;4981841;28;20080;-68
2021/09/20 11:47:27;;;;;;;12.45;7.85;;;17.40;90.10;;;;;;4996777;28;20014;-68
2021/09/20 11:50:07;;;;;;;12.20;7.68;;;17.30;90.00;;;;;;4996864;28;20037;-68
2021/09/20 11:52:44;;;;;;;13.60;8.65;;;17.40;90.40;;;;;;4996789;28;20026;-68
2021/09/20 11:55:25;;;;;;;12.77;8.38;;;17.50;90.00;;;;;;4996490;28;20036;-70
2021/09/20 11:57:54;;;;;;;14.43;9.23;;;17.60;89.50;;;;;;4995382;28;20053;-70
2021/09/20 12:00:26;;;;;;;11.82;8.55;;;17.40;89.70;;;;;;4979416;28;20030;-69
2021/09/20 12:02:57;;;;;;;13.23;9.02;;;17.30;91.60;;;;;;4996517;28;20029;-70
2021/09/20 12:05:34;;;;;;;12.38;8.77;;;17.30;90.20;;;;;;4996547;28;20056;-70
2021/09/20 12:08:04;;;;;;;12.18;8.93;;;17.10;91.50;;;;;;4996609;28;20026;-72
2021/09/20 12:10:35;;;;;;;11.90;9.25;;;17.00;91.60;;;;;;4996129;28;20415;-69
2021/09/20 12:13:07;;;;;;;14.73;9.68;;;16.90;92.00;;;;;;4995302;28;20034;-69
2021/09/20 12:15:35;;;;;;;13.55;8.68;;;17.00;91.00;;;;;;4998911;28;20022;-69
2021/09/20 12:18:02;;;;;;;11.82;8.65;;;17.20;91.60;;;;;;4970520;28;20425;-70
2021/09/20 12:20:40;;;;;;;13.57;9.02;;;17.50;91.50;;;;;;4977173;28;20026;-69
2021/09/20 12:23:14;;;;;;;11.98;8.20;;;17.60;89.30;;;;;;4976932;28;20038;-69
2021/09/20 12:25:43;;;;;;;13.02;9.35;;;17.80;89.50;;;;;;4978311;28;20073;-69
2021/09/20 12:28:37;;;;;;;12.70;9.23;;;17.90;89.20;;;;;;4979792;28;20444;-69
2021/09/20 12:31:12;;;;;;;13.18;9.00;;;17.90;89.20;;;;;;4952222;28;20462;-71
2021/09/20 12:33:58;;;;;;;12.23;8.65;;;17.90;89.60;;;;;;4963641;28;20491;-71
2021/09/20 12:36:39;;;;;;;12.50;8.45;;;18.10;89.10;;;;;;5003637;28;20358;-70
2021/09/20 12:39:11;;;;;;;13.15;9.15;;;18.30;88.80;;;;;;5019792;28;20026;-69
2021/09/20 12:41:53;;;;;;;12.55;8.57;;;18.30;88.00;;;;;;5018553;28;20415;-70